createdAt,value
2018-11-05T00:00:14.871Z,6.00
2018-11-05T00:02:43.505Z,6.00
2018-11-05T00:05:12.066Z,6.00
2018-11-05T00:07:40.674Z,6.00
2018-11-05T00:10:09.525Z,6.00
2018-11-05T00:12:38.310Z,6.00
2018-11-05T00:15:07.194Z,6.00
2018-11-05T00:17:35.810Z,6.00
2018-11-05T00:20:04.617Z,6.00
2018-11-05T00:22:33.182Z,6.00
2018-11-05T00:25:01.846Z,6.00
2018-11-05T00:27:30.457Z,6.10
2018-11-05T00:29:59.017Z,6.20
2018-11-05T00:32:27.753Z,6.20
2018-11-05T00:34:56.298Z,6.20
2018-11-05T00:37:24.865Z,6.20
2018-11-05T00:39:53.465Z,6.20
2018-11-05T00:42:23.082Z,6.20
2018-11-05T00:44:51.703Z,6.20
2018-11-05T00:47:20.602Z,6.10
2018-11-05T00:49:49.215Z,6.10
2018-11-05T00:52:17.911Z,6.10
2018-11-05T00:54:46.519Z,6.10
2018-11-05T00:57:15.139Z,6.10
2018-11-05T00:59:43.689Z,6.00
2018-11-05T01:02:12.247Z,6.00
2018-11-05T01:04:40.878Z,6.00
2018-11-05T01:07:09.442Z,6.00
2018-11-05T01:09:38.056Z,6.00
2018-11-05T01:12:06.634Z,6.00
2018-11-05T01:14:35.191Z,6.00
2018-11-05T01:17:03.806Z,6.00
2018-11-05T01:19:32.376Z,6.00
2018-11-05T01:22:00.995Z,6.00
2018-11-05T01:24:29.699Z,6.00
2018-11-05T01:26:58.439Z,5.90
2018-11-05T01:29:26.985Z,6.00
2018-11-05T01:31:55.569Z,6.00
2018-11-05T01:34:24.177Z,6.00
2018-11-05T01:36:52.775Z,5.90
2018-11-05T01:39:21.354Z,5.90
2018-11-05T01:41:49.921Z,5.90
2018-11-05T01:44:18.517Z,5.90
2018-11-05T01:46:47.438Z,5.90
2018-11-05T01:49:16.042Z,5.90
2018-11-05T01:51:44.722Z,5.90
2018-11-05T01:54:13.567Z,5.90
2018-11-05T01:56:42.147Z,5.90
2018-11-05T01:59:10.774Z,5.90
2018-11-05T02:01:39.616Z,6.00
2018-11-05T02:04:08.202Z,6.00
2018-11-05T02:06:36.755Z,6.00
2018-11-05T02:09:07.026Z,6.00
2018-11-05T02:11:35.738Z,6.00
2018-11-05T02:14:04.398Z,6.00
2018-11-05T02:16:33.070Z,6.00
2018-11-05T02:19:01.690Z,6.00
2018-11-05T02:21:30.246Z,6.00
2018-11-05T02:23:59.081Z,6.00
2018-11-05T02:26:27.645Z,6.00
2018-11-05T02:28:56.190Z,6.00
2018-11-05T02:31:24.797Z,6.00
2018-11-05T02:33:53.473Z,6.10
2018-11-05T02:36:22.112Z,6.10
2018-11-05T02:38:50.779Z,6.10
2018-11-05T02:41:19.359Z,6.10
2018-11-05T02:43:47.935Z,6.20
2018-11-05T02:46:16.754Z,6.20
2018-11-05T02:48:45.374Z,6.20
2018-11-05T02:51:13.942Z,6.20
2018-11-05T02:53:42.770Z,6.20
2018-11-05T02:56:11.440Z,6.20
2018-11-05T02:58:40.007Z,6.20
2018-11-05T03:01:08.765Z,6.20
2018-11-05T03:03:37.350Z,6.20
2018-11-05T03:06:06.131Z,6.30
2018-11-05T03:08:34.702Z,6.30
2018-11-05T03:11:03.324Z,6.30
2018-11-05T03:13:31.935Z,6.30
2018-11-05T03:16:00.517Z,6.30
2018-11-05T03:18:29.221Z,6.30
2018-11-05T03:20:57.785Z,6.30
2018-11-05T03:23:26.678Z,6.30
2018-11-05T03:25:55.280Z,6.30
2018-11-05T03:28:23.854Z,6.30
2018-11-05T03:30:52.458Z,6.40
2018-11-05T03:33:21.114Z,6.40
2018-11-05T03:35:49.776Z,6.40
2018-11-05T03:38:18.376Z,6.40
2018-11-05T03:40:47.035Z,6.40
2018-11-05T03:43:15.634Z,6.40
2018-11-05T03:45:44.267Z,6.50
2018-11-05T03:48:12.855Z,6.50
2018-11-05T03:50:41.454Z,6.40
2018-11-05T03:53:10.345Z,6.50
2018-11-05T03:55:38.996Z,6.50
2018-11-05T03:58:07.538Z,6.50
2018-11-05T04:00:36.106Z,6.50
2018-11-05T04:03:04.936Z,6.50
2018-11-05T04:05:33.457Z,6.50
2018-11-05T04:08:02.458Z,6.60
2018-11-05T04:10:31.018Z,6.60
2018-11-05T04:12:59.585Z,6.60
2018-11-05T04:15:28.304Z,6.60
2018-11-05T04:17:56.798Z,6.60
2018-11-05T04:20:25.366Z,6.70
2018-11-05T04:22:54.129Z,6.70
2018-11-05T04:25:22.718Z,6.80
2018-11-05T04:27:51.418Z,6.80
2018-11-05T04:30:20.160Z,6.90
2018-11-05T04:32:48.734Z,6.90
2018-11-05T04:35:17.303Z,6.90
2018-11-05T04:37:46.218Z,7.00
2018-11-05T04:40:14.835Z,7.00
2018-11-05T04:42:43.382Z,6.90
2018-11-05T04:45:13.302Z,7.00
2018-11-05T04:47:42.466Z,7.10
2018-11-05T04:50:12.270Z,7.10
2018-11-05T04:52:41.637Z,7.10
2018-11-05T04:55:10.209Z,7.20
2018-11-05T04:57:38.985Z,7.10
2018-11-05T05:00:14.057Z,7.10
2018-11-05T05:02:42.946Z,7.10
2018-11-05T05:05:14.557Z,7.20
2018-11-05T05:07:43.289Z,7.20
2018-11-05T05:10:11.873Z,7.20
2018-11-05T05:12:41.508Z,7.20
2018-11-05T05:15:10.726Z,7.30
2018-11-05T05:17:39.721Z,7.30
2018-11-05T05:20:10.370Z,7.30
2018-11-05T05:22:39.090Z,7.30
2018-11-05T05:25:07.582Z,7.30
2018-11-05T05:27:36.194Z,7.30
2018-11-05T05:30:06.438Z,7.30
2018-11-05T05:32:35.018Z,7.30
2018-11-05T05:35:03.594Z,7.30
2018-11-05T05:37:32.504Z,7.30
2018-11-05T05:40:01.257Z,7.30
2018-11-05T05:42:29.946Z,7.30
2018-11-05T05:44:58.969Z,7.40
2018-11-05T05:47:27.569Z,7.40
2018-11-05T05:49:56.245Z,7.40
2018-11-05T05:52:24.866Z,7.40
2018-11-05T05:54:53.441Z,7.40
2018-11-05T05:57:22.022Z,7.50
2018-11-05T05:59:50.873Z,7.50
2018-11-05T06:02:19.450Z,7.50
2018-11-05T06:04:48.058Z,7.50
2018-11-05T06:07:16.895Z,7.50
2018-11-05T06:09:45.593Z,7.50
2018-11-05T06:12:14.155Z,7.50
2018-11-05T06:14:43.890Z,7.50
2018-11-05T06:17:12.493Z,7.50
2018-11-05T06:19:41.062Z,7.50
2018-11-05T06:22:10.179Z,7.50
2018-11-05T06:24:38.788Z,7.50
2018-11-05T06:27:07.422Z,7.50
2018-11-05T06:29:36.198Z,7.60
2018-11-05T06:32:06.503Z,7.60
2018-11-05T06:34:35.081Z,7.60
2018-11-05T06:37:03.717Z,7.60
2018-11-05T06:39:32.298Z,7.60
2018-11-05T06:42:00.926Z,7.60
2018-11-05T06:44:29.518Z,7.60
2018-11-05T06:46:58.118Z,7.70
2018-11-05T06:49:26.716Z,7.60
2018-11-05T06:51:55.587Z,7.60
2018-11-05T06:54:24.306Z,7.50
2018-11-05T06:56:52.870Z,7.50
2018-11-05T06:59:21.470Z,7.50
2018-11-05T07:01:50.065Z,7.60
2018-11-05T07:04:18.654Z,7.60
2018-11-05T07:06:47.555Z,7.60
2018-11-05T07:09:16.142Z,7.60
2018-11-05T07:11:44.697Z,7.60
2018-11-05T07:14:13.306Z,7.60
2018-11-05T07:16:42.029Z,7.60
2018-11-05T07:19:10.970Z,7.60
2018-11-05T07:21:39.454Z,7.70
2018-11-05T07:24:08.373Z,7.70
2018-11-05T07:26:37.295Z,7.70
2018-11-05T07:29:06.675Z,7.60
2018-11-05T07:31:35.704Z,7.60
2018-11-05T07:34:05.014Z,7.60
2018-11-05T07:36:34.097Z,7.60
2018-11-05T07:39:03.145Z,7.50
2018-11-05T07:41:31.763Z,7.60
2018-11-05T07:44:00.687Z,7.60
2018-11-05T07:46:29.254Z,7.60
2018-11-05T07:48:57.849Z,7.60
2018-11-05T07:51:26.785Z,7.60
2018-11-05T07:53:55.331Z,7.50
2018-11-05T07:56:23.964Z,7.50
2018-11-05T07:58:52.874Z,7.50
2018-11-05T08:01:21.454Z,7.60
2018-11-05T08:03:50.133Z,7.60
2018-11-05T08:06:18.961Z,7.60
2018-11-05T08:08:47.590Z,7.70
2018-11-05T08:11:16.181Z,7.70
2018-11-05T08:13:44.841Z,7.70
2018-11-05T08:16:13.429Z,7.70
2018-11-05T08:18:42.014Z,7.70
2018-11-05T08:21:10.893Z,7.70
2018-11-05T08:23:39.594Z,7.70
2018-11-05T08:26:08.198Z,7.70
2018-11-05T08:28:36.838Z,7.70
2018-11-05T08:31:06.306Z,7.70
2018-11-05T08:33:34.958Z,7.70
2018-11-05T08:36:03.886Z,7.70
2018-11-05T08:38:32.450Z,7.80
2018-11-05T08:41:00.999Z,7.80
2018-11-05T08:43:29.698Z,7.80
2018-11-05T08:45:58.293Z,7.80
2018-11-05T08:48:26.914Z,7.90
2018-11-05T08:50:55.843Z,7.90
2018-11-05T08:53:24.429Z,7.90
2018-11-05T08:55:53.018Z,8.00
2018-11-05T08:58:22.003Z,8.00
2018-11-05T09:01:00.638Z,8.10
2018-11-05T09:03:29.570Z,8.20
2018-11-05T09:05:58.138Z,8.20
2018-11-05T09:08:26.768Z,8.30
2018-11-05T09:10:55.748Z,8.30
2018-11-05T09:13:24.011Z,8.30
2018-11-05T09:15:52.590Z,8.30
2018-11-05T09:18:21.430Z,8.20
2018-11-05T09:20:50.144Z,8.30
2018-11-05T09:23:18.674Z,8.40
2018-11-05T09:25:47.577Z,8.50
2018-11-05T09:28:16.169Z,8.50
2018-11-05T09:30:44.758Z,8.60
2018-11-05T09:33:13.455Z,8.60
2018-11-05T09:35:42.235Z,8.60
2018-11-05T09:38:10.801Z,8.70
2018-11-05T09:40:39.701Z,8.70
2018-11-05T09:43:08.340Z,8.70
2018-11-05T09:45:36.974Z,8.60
2018-11-05T09:48:06.271Z,8.60
2018-11-05T09:50:34.967Z,8.60
2018-11-05T09:53:03.506Z,8.60
2018-11-05T09:55:32.101Z,8.70
2018-11-05T09:58:00.731Z,8.70
2018-11-05T10:00:29.458Z,8.80
2018-11-05T10:03:00.900Z,8.80
2018-11-05T10:05:29.468Z,8.90
2018-11-05T10:07:58.028Z,8.90
2018-11-05T10:10:26.750Z,8.90
2018-11-05T10:12:55.365Z,8.90
2018-11-05T10:15:23.958Z,8.90
2018-11-05T10:17:52.598Z,8.90
2018-11-05T10:20:22.507Z,9.00
2018-11-05T10:22:51.110Z,9.00
2018-11-05T10:25:20.083Z,9.00
2018-11-05T10:27:49.536Z,9.00
2018-11-05T10:30:20.374Z,9.00
2018-11-05T10:32:49.374Z,9.10
2018-11-05T10:35:18.286Z,9.10
2018-11-05T10:37:46.882Z,9.10
2018-11-05T10:40:17.399Z,9.20
2018-11-05T10:42:46.793Z,9.10
2018-11-05T10:45:16.486Z,9.20
2018-11-05T10:47:45.373Z,9.20
2018-11-05T10:50:15.158Z,9.20
2018-11-05T10:52:45.091Z,9.20
2018-11-05T10:55:13.963Z,9.20
2018-11-05T10:57:43.110Z,9.20
2018-11-05T11:00:23.345Z,9.20
2018-11-05T11:02:57.286Z,9.20
2018-11-05T11:05:26.593Z,9.30
2018-11-05T11:07:56.188Z,9.20
2018-11-05T11:10:25.769Z,9.30
2018-11-05T11:12:54.381Z,9.30
2018-11-05T11:15:23.119Z,9.30
2018-11-05T11:17:51.969Z,9.20
2018-11-05T11:20:20.913Z,9.20
2018-11-05T11:22:49.510Z,9.20
2018-11-05T11:25:18.102Z,9.20
2018-11-05T11:27:46.775Z,9.20
2018-11-05T11:30:15.966Z,9.20
2018-11-05T11:32:45.144Z,9.20
2018-11-05T11:35:14.066Z,9.30
2018-11-05T11:37:42.660Z,9.30
2018-11-05T11:40:14.350Z,9.20
2018-11-05T11:42:43.989Z,9.20
2018-11-05T11:45:13.414Z,9.20
2018-11-05T11:47:42.026Z,9.20
2018-11-05T11:50:12.455Z,9.20
2018-11-05T11:52:41.069Z,9.20
2018-11-05T11:55:11.612Z,9.10
2018-11-05T11:57:40.788Z,9.20
2018-11-05T12:00:23.853Z,9.10
2018-11-05T12:02:53.021Z,9.10
2018-11-05T12:05:21.772Z,9.20
2018-11-05T12:07:50.322Z,9.20
2018-11-05T12:10:21.778Z,9.20
2018-11-05T12:12:50.465Z,9.20
2018-11-05T12:15:19.827Z,9.20
2018-11-05T12:17:49.450Z,9.10
2018-11-05T12:20:19.450Z,9.10
2018-11-05T12:22:48.610Z,9.10
2018-11-05T12:25:17.310Z,9.00
2018-11-05T12:27:45.902Z,9.10
2018-11-05T12:30:17.801Z,9.10
2018-11-05T12:32:47.218Z,9.10
2018-11-05T12:35:15.824Z,9.10
2018-11-05T12:37:45.622Z,9.10
2018-11-05T12:40:16.754Z,9.00
2018-11-05T12:42:46.461Z,9.00
2018-11-05T12:45:15.092Z,9.00
2018-11-05T12:47:43.733Z,9.00
2018-11-05T12:50:15.077Z,9.00
2018-11-05T12:52:44.682Z,9.00
2018-11-05T12:55:13.339Z,9.00
2018-11-05T12:57:42.051Z,9.00
2018-11-05T13:00:16.702Z,8.90
2018-11-05T13:02:49.537Z,8.90
2018-11-05T13:05:18.201Z,9.00
2018-11-05T13:07:46.855Z,9.00
2018-11-05T13:10:15.477Z,9.00
2018-11-05T13:12:44.519Z,8.90
2018-11-05T13:15:13.207Z,8.90
2018-11-05T13:17:42.019Z,8.90
2018-11-05T13:20:14.610Z,8.90
2018-11-05T13:22:43.587Z,8.90
2018-11-05T13:25:12.394Z,8.90
2018-11-05T13:27:42.465Z,8.80
2018-11-05T13:30:11.809Z,8.90
2018-11-05T13:32:40.863Z,8.90
2018-11-05T13:35:11.822Z,8.90
2018-11-05T13:37:41.031Z,8.90
2018-11-05T13:40:12.698Z,8.80
2018-11-05T13:42:41.285Z,8.80
2018-11-05T13:45:11.034Z,8.80
2018-11-05T13:47:40.395Z,8.80
2018-11-05T13:50:09.467Z,8.80
2018-11-05T13:52:38.129Z,8.80
2018-11-05T13:55:07.959Z,8.80
2018-11-05T13:57:36.579Z,8.80
2018-11-05T14:00:06.891Z,8.80
2018-11-05T14:02:35.476Z,8.80
2018-11-05T14:05:04.082Z,8.80
2018-11-05T14:07:32.697Z,8.70
2018-11-05T14:10:01.335Z,8.70
2018-11-05T14:12:29.998Z,8.70
2018-11-05T14:14:58.794Z,8.70
2018-11-05T14:17:27.434Z,8.70
2018-11-05T14:19:56.030Z,8.60
2018-11-05T14:22:24.742Z,8.70
2018-11-05T14:24:53.381Z,8.70
2018-11-05T14:27:22.010Z,8.70
2018-11-05T14:29:50.997Z,8.70
2018-11-05T14:32:19.937Z,8.70
2018-11-05T14:34:48.703Z,8.70
2018-11-05T14:37:17.690Z,8.70
2018-11-05T14:39:46.390Z,8.60
2018-11-05T14:42:15.102Z,8.60
2018-11-05T14:44:43.859Z,8.60
2018-11-05T14:47:12.694Z,8.60
2018-11-05T14:49:41.294Z,8.50
2018-11-05T14:52:09.921Z,8.50
2018-11-05T14:54:38.497Z,8.50
2018-11-05T14:57:07.199Z,8.50
2018-11-05T14:59:35.910Z,8.50
2018-11-05T15:02:10.219Z,8.50
2018-11-05T15:04:38.794Z,8.50
2018-11-05T15:07:07.397Z,8.50
2018-11-05T15:09:36.030Z,8.50
2018-11-05T15:12:04.630Z,8.50
2018-11-05T15:14:33.226Z,8.50
2018-11-05T15:17:01.796Z,8.50
2018-11-05T15:19:30.743Z,8.50
2018-11-05T15:21:59.015Z,8.50
2018-11-05T15:24:27.607Z,8.50
2018-11-05T15:26:56.394Z,8.60
2018-11-05T15:29:24.977Z,8.60
2018-11-05T15:31:53.872Z,8.50
2018-11-05T15:34:22.475Z,8.50
2018-11-05T15:36:51.074Z,8.50
2018-11-05T15:39:19.737Z,8.50
2018-11-05T15:41:48.469Z,8.50
2018-11-05T15:44:17.040Z,8.50
2018-11-05T15:46:45.867Z,8.50
2018-11-05T15:49:14.449Z,8.60
2018-11-05T15:51:44.311Z,8.50
2018-11-05T15:54:12.690Z,8.60
2018-11-05T15:56:41.178Z,8.60
2018-11-05T15:59:09.723Z,8.60
2018-11-05T16:01:38.348Z,8.60
2018-11-05T16:04:07.518Z,8.60
2018-11-05T16:06:36.097Z,8.60
2018-11-05T16:09:05.785Z,8.60
2018-11-05T16:11:34.367Z,8.60
2018-11-05T16:14:02.988Z,8.60
2018-11-05T16:16:31.621Z,8.60
2018-11-05T16:19:00.218Z,8.60
2018-11-05T16:21:28.809Z,8.60
2018-11-05T16:23:57.458Z,8.70
2018-11-05T16:26:26.153Z,8.70
2018-11-05T16:28:54.770Z,8.60
2018-11-05T16:31:23.611Z,8.70
2018-11-05T16:33:52.214Z,8.70
2018-11-05T16:36:20.781Z,8.60
2018-11-05T16:38:49.701Z,8.60
2018-11-05T16:41:18.318Z,8.60
2018-11-05T16:43:46.906Z,8.50
2018-11-05T16:46:15.473Z,8.50
2018-11-05T16:48:44.127Z,8.60
2018-11-05T16:51:12.697Z,8.60
2018-11-05T16:53:41.381Z,8.50
2018-11-05T16:56:09.929Z,8.50
2018-11-05T16:58:38.598Z,8.60
2018-11-05T17:01:08.065Z,8.50
2018-11-05T17:03:36.254Z,8.50
2018-11-05T17:06:04.866Z,8.50
2018-11-05T17:08:33.695Z,8.50
2018-11-05T17:11:02.330Z,8.50
2018-11-05T17:13:31.009Z,8.50
2018-11-05T17:15:59.478Z,8.50
2018-11-05T17:18:28.062Z,8.50
2018-11-05T17:20:56.806Z,8.50
2018-11-05T17:23:25.817Z,8.50
2018-11-05T17:25:54.744Z,8.50
2018-11-05T17:28:23.342Z,8.50
2018-11-05T17:30:52.250Z,8.50
2018-11-05T17:33:20.962Z,8.50
2018-11-05T17:35:49.534Z,8.60
2018-11-05T17:38:18.134Z,8.50
2018-11-05T17:40:46.777Z,8.50
2018-11-05T17:43:15.370Z,8.40
2018-11-05T17:45:43.970Z,8.40
2018-11-05T17:48:12.526Z,8.40
2018-11-05T17:50:41.128Z,8.40
2018-11-05T17:53:09.781Z,8.40
2018-11-05T17:55:38.589Z,8.40
2018-11-05T17:58:07.158Z,8.40
2018-11-05T18:00:35.770Z,8.40
2018-11-05T18:03:04.842Z,8.40
2018-11-05T18:05:33.458Z,8.40
2018-11-05T18:08:02.338Z,8.40
2018-11-05T18:10:30.927Z,8.40
2018-11-05T18:12:59.570Z,8.40
2018-11-05T18:15:28.490Z,8.40
2018-11-05T18:17:57.137Z,8.40
2018-11-05T18:20:25.738Z,8.40
2018-11-05T18:22:54.378Z,8.40
2018-11-05T18:25:22.983Z,8.30
2018-11-05T18:27:51.558Z,8.40
2018-11-05T18:30:20.162Z,8.40
2018-11-05T18:32:48.818Z,8.40
2018-11-05T18:35:17.562Z,8.30
2018-11-05T18:37:47.923Z,8.30
2018-11-05T18:40:16.779Z,8.30
2018-11-05T18:42:45.545Z,8.30
2018-11-05T18:45:14.324Z,8.30
2018-11-05T18:47:43.088Z,8.30
2018-11-05T18:50:13.183Z,8.40
2018-11-05T18:52:42.260Z,8.40
2018-11-05T18:55:12.049Z,8.40
2018-11-05T18:57:40.882Z,8.40
2018-11-05T19:00:19.081Z,8.40
2018-11-05T19:02:48.082Z,8.40
2018-11-05T19:05:17.006Z,8.40
2018-11-05T19:07:45.918Z,8.30
2018-11-05T19:10:14.506Z,8.30
2018-11-05T19:12:43.118Z,8.30
2018-11-05T19:15:13.150Z,8.30
2018-11-05T19:17:42.182Z,8.30
2018-11-05T19:20:10.838Z,8.20
2018-11-05T19:22:40.343Z,8.20
2018-11-05T19:25:10.121Z,8.20
2018-11-05T19:27:39.341Z,8.20
2018-11-05T19:30:10.100Z,8.20
2018-11-05T19:32:38.814Z,8.20
2018-11-05T19:35:08.153Z,8.20
2018-11-05T19:37:36.829Z,8.30
2018-11-05T19:40:06.221Z,8.30
2018-11-05T19:42:35.183Z,8.30
2018-11-05T19:45:03.880Z,8.20
2018-11-05T19:47:32.451Z,8.20
2018-11-05T19:50:01.030Z,8.20
2018-11-05T19:52:29.629Z,8.20
2018-11-05T19:54:58.268Z,8.20
2018-11-05T19:57:26.885Z,8.20
2018-11-05T19:59:55.780Z,8.20
2018-11-05T20:02:28.993Z,8.20
2018-11-05T20:04:57.781Z,8.30
2018-11-05T20:07:27.090Z,8.30
2018-11-05T20:09:55.681Z,8.20
2018-11-05T20:12:24.310Z,8.20
2018-11-05T20:14:52.940Z,8.20
2018-11-05T20:17:21.506Z,8.20
2018-11-05T20:19:50.087Z,8.20
2018-11-05T20:22:18.722Z,8.20
2018-11-05T20:24:47.310Z,8.20
2018-11-05T20:27:16.182Z,8.20
2018-11-05T20:29:44.744Z,8.20
2018-11-05T20:32:13.617Z,8.20
2018-11-05T20:34:42.177Z,8.20
2018-11-05T20:37:10.762Z,8.20
2018-11-05T20:39:39.404Z,8.20
2018-11-05T20:42:08.304Z,8.20
2018-11-05T20:44:36.913Z,8.20
2018-11-05T20:47:05.846Z,8.20
2018-11-05T20:49:34.657Z,8.20
2018-11-05T20:52:03.234Z,8.20
2018-11-05T20:54:31.926Z,8.20
2018-11-05T20:57:00.798Z,8.20
2018-11-05T20:59:29.438Z,8.20
2018-11-05T21:01:58.019Z,8.20
2018-11-05T21:04:26.646Z,8.20
2018-11-05T21:06:55.265Z,8.20
2018-11-05T21:09:23.886Z,8.20
2018-11-05T21:11:54.450Z,8.20
2018-11-05T21:14:23.078Z,8.20
2018-11-05T21:16:51.977Z,8.20
2018-11-05T21:19:20.912Z,8.20
2018-11-05T21:21:49.797Z,8.20
2018-11-05T21:24:18.258Z,8.20
2018-11-05T21:26:47.078Z,8.20
2018-11-05T21:29:15.712Z,8.20
2018-11-05T21:31:44.334Z,8.20
2018-11-05T21:34:13.163Z,8.10
2018-11-05T21:36:41.737Z,8.20
2018-11-05T21:39:11.834Z,8.10
2018-11-05T21:41:40.689Z,8.10
2018-11-05T21:44:09.630Z,8.20
2018-11-05T21:46:38.219Z,8.20
2018-11-05T21:49:07.330Z,8.20
2018-11-05T21:51:36.053Z,8.20
2018-11-05T21:54:04.717Z,8.20
2018-11-05T21:56:33.414Z,8.10
2018-11-05T21:59:02.019Z,8.10
2018-11-05T22:01:30.605Z,8.20
2018-11-05T22:03:59.247Z,8.20
2018-11-05T22:06:27.845Z,8.20
2018-11-05T22:08:56.458Z,8.20
2018-11-05T22:11:25.294Z,8.20
2018-11-05T22:13:53.946Z,8.20
2018-11-05T22:16:22.533Z,8.20
2018-11-05T22:18:51.115Z,8.20
2018-11-05T22:21:19.709Z,8.20
2018-11-05T22:23:48.254Z,8.20
2018-11-05T22:26:17.090Z,8.30
2018-11-05T22:28:45.694Z,8.30
2018-11-05T22:31:14.343Z,8.20
2018-11-05T22:33:43.241Z,8.20
2018-11-05T22:36:11.930Z,8.20
2018-11-05T22:38:40.494Z,8.20
2018-11-05T22:41:09.168Z,8.20
2018-11-05T22:43:37.757Z,8.20
2018-11-05T22:46:06.638Z,8.20
2018-11-05T22:48:35.238Z,8.30
2018-11-05T22:51:03.858Z,8.30
2018-11-05T22:53:32.417Z,8.30
2018-11-05T22:56:01.042Z,8.30
2018-11-05T22:58:30.834Z,8.30
2018-11-05T23:01:02.955Z,8.30
2018-11-05T23:03:31.861Z,8.30
2018-11-05T23:06:00.666Z,8.30
2018-11-05T23:08:29.521Z,8.30
2018-11-05T23:10:58.209Z,8.30
2018-11-05T23:13:26.794Z,8.30
2018-11-05T23:15:55.389Z,8.30
2018-11-05T23:18:24.006Z,8.30
2018-11-05T23:20:52.633Z,8.30
2018-11-05T23:23:21.350Z,8.30
2018-11-05T23:25:49.933Z,8.30
2018-11-05T23:28:18.512Z,8.30
2018-11-05T23:30:47.394Z,8.30
2018-11-05T23:33:16.033Z,8.20
2018-11-05T23:35:44.621Z,8.30
2018-11-05T23:38:13.206Z,8.30
2018-11-05T23:40:41.988Z,8.30
2018-11-05T23:43:10.587Z,8.30
2018-11-05T23:45:40.110Z,8.30
2018-11-05T23:48:08.699Z,8.30
2018-11-05T23:50:37.253Z,8.30
2018-11-05T23:53:05.986Z,8.30
2018-11-05T23:55:34.558Z,8.30
2018-11-05T23:58:03.188Z,8.30
